createdAt,value
2023-01-01T00:01:29.890Z,31.83
2023-01-01T00:03:58.003Z,22.53
2023-01-01T00:06:25.572Z,16.50
2023-01-01T00:09:11.247Z,15.83
2023-01-01T00:11:38.367Z,14.40
2023-01-01T00:14:11.866Z,14.80
2023-01-01T00:16:39.620Z,14.57
2023-01-01T00:19:06.800Z,12.33
2023-01-01T00:21:33.914Z,16.03
2023-01-01T00:24:01.048Z,13.07
2023-01-01T00:26:32.742Z,11.47
2023-01-01T00:29:02.116Z,14.03
2023-01-01T00:31:29.458Z,13.77
2023-01-01T00:33:57.087Z,14.03
2023-01-01T00:36:25.435Z,11.70
2023-01-01T00:38:52.603Z,13.50
2023-01-01T00:41:20.137Z,12.33
2023-01-01T00:43:47.297Z,13.23
2023-01-01T00:46:14.810Z,11.30
2023-01-01T00:48:41.949Z,13.43
2023-01-01T00:51:09.031Z,12.37
2023-01-01T00:53:36.648Z,11.70
2023-01-01T00:56:04.175Z,12.77
2023-01-01T00:58:31.313Z,13.33
2023-01-01T01:00:58.531Z,14.63
2023-01-01T01:03:28.704Z,11.67
2023-01-01T01:05:57.093Z,13.07
2023-01-01T01:08:28.652Z,15.63
2023-01-01T01:11:05.594Z,12.43
2023-01-01T01:13:32.828Z,12.80
2023-01-01T01:16:00.136Z,14.07
2023-01-01T01:18:27.502Z,12.27
2023-01-01T01:20:54.803Z,13.27
2023-01-01T01:23:22.210Z,14.33
2023-01-01T01:25:49.389Z,12.97
2023-01-01T01:28:16.513Z,13.17
2023-01-01T01:30:43.605Z,14.60
2023-01-01T01:33:10.819Z,12.80
2023-01-01T01:35:37.971Z,13.10
2023-01-01T01:38:05.100Z,15.10
2023-01-01T01:40:32.215Z,14.23
2023-01-01T01:42:59.348Z,14.80
2023-01-01T01:45:32.986Z,15.40
2023-01-01T01:48:00.808Z,15.80
2023-01-01T01:50:30.706Z,16.73
2023-01-01T01:53:20.033Z,19.73
2023-01-01T01:55:58.743Z,16.07
2023-01-01T01:58:26.686Z,15.27
2023-01-01T02:00:54.627Z,15.10
2023-01-01T02:03:24.095Z,18.10
2023-01-01T02:05:51.714Z,18.17
2023-01-01T02:08:18.936Z,19.50
2023-01-01T02:10:46.044Z,20.43
2023-01-01T02:13:13.419Z,17.67
2023-01-01T02:15:42.577Z,17.77
2023-01-01T02:18:15.381Z,22.33
2023-01-01T02:20:49.117Z,19.50
2023-01-01T02:23:22.121Z,23.03
2023-01-01T02:25:58.330Z,22.43
2023-01-01T02:28:37.438Z,24.43
2023-01-01T02:31:05.076Z,22.63
2023-01-01T02:33:32.277Z,24.57
2023-01-01T02:36:00.885Z,23.70
2023-01-01T02:38:33.520Z,23.47
2023-01-01T02:41:02.685Z,24.57
2023-01-01T02:43:29.798Z,23.23
2023-01-01T02:45:57.470Z,23.10
2023-01-01T02:48:44.795Z,28.10
2023-01-01T02:51:16.001Z,29.23
2023-01-01T02:53:46.808Z,26.53
2023-01-01T02:56:19.814Z,32.67
2023-01-01T02:59:24.160Z,29.33
2023-01-01T03:01:59.895Z,30.30
2023-01-01T03:04:36.236Z,33.37
2023-01-01T03:07:03.314Z,30.77
2023-01-01T03:09:40.644Z,31.90
2023-01-01T03:12:16.501Z,34.70
2023-01-01T03:14:43.612Z,35.90
2023-01-01T03:17:16.112Z,35.87
2023-01-01T03:19:44.100Z,38.43
2023-01-01T03:22:12.674Z,35.00
2023-01-01T03:24:46.006Z,36.63
2023-01-01T03:27:15.941Z,37.10
2023-01-01T03:29:44.109Z,41.00
2023-01-01T03:32:16.379Z,43.67
2023-01-01T03:34:46.379Z,40.60
2023-01-01T03:37:16.552Z,41.47
2023-01-01T03:39:46.715Z,40.13
2023-01-01T03:42:18.867Z,42.63
2023-01-01T03:44:57.923Z,43.43
2023-01-01T03:47:25.309Z,40.27
2023-01-01T03:49:52.479Z,41.83
2023-01-01T03:52:22.379Z,47.63
2023-01-01T03:55:05.020Z,47.97
2023-01-01T03:57:38.781Z,43.67
2023-01-01T04:00:11.339Z,48.30
2023-01-01T04:02:46.087Z,44.23
2023-01-01T04:05:13.460Z,49.23
2023-01-01T04:10:17.692Z,48.30
2023-01-01T04:12:52.294Z,49.37
2023-01-01T04:15:20.416Z,45.83
2023-01-01T04:17:47.638Z,47.73
2023-01-01T04:20:15.101Z,46.37
2023-01-01T04:22:42.299Z,50.47
2023-01-01T04:25:10.110Z,46.10
2023-01-01T04:27:37.767Z,48.37
2023-01-01T04:30:08.932Z,50.03
2023-01-01T04:32:36.093Z,45.80
2023-01-01T04:35:03.273Z,48.27
2023-01-01T04:37:30.433Z,47.67
2023-01-01T04:39:57.510Z,49.17
2023-01-01T04:42:24.628Z,48.43
2023-01-01T04:44:51.731Z,44.80
2023-01-01T04:47:18.819Z,47.07
2023-01-01T04:49:45.930Z,44.50
2023-01-01T04:52:13.035Z,46.03
2023-01-01T04:54:40.178Z,44.20
2023-01-01T04:57:07.307Z,42.50
2023-01-01T04:59:34.400Z,46.87
2023-01-01T05:02:01.695Z,42.43
2023-01-01T05:04:29.029Z,46.23
2023-01-01T05:06:56.138Z,44.17
2023-01-01T05:09:23.279Z,42.33
2023-01-01T05:11:50.382Z,42.60
2023-01-01T05:14:17.522Z,42.20
2023-01-01T05:16:44.670Z,42.27
2023-01-01T05:19:11.809Z,41.93
2023-01-01T05:21:40.691Z,39.63
2023-01-01T05:24:09.048Z,40.97
2023-01-01T05:26:37.580Z,41.20
2023-01-01T05:29:08.957Z,37.00
2023-01-01T05:31:40.819Z,37.53
2023-01-01T05:36:38.340Z,38.33
2023-01-01T05:39:09.441Z,36.57
2023-01-01T05:41:36.851Z,34.57
2023-01-01T05:44:05.150Z,38.47
2023-01-01T05:46:32.483Z,38.50
2023-01-01T05:49:00.030Z,38.47
2023-01-01T05:51:28.751Z,39.53
2023-01-01T05:53:55.832Z,36.17
2023-01-01T05:56:23.383Z,34.70
2023-01-01T05:58:50.661Z,35.67
2023-01-01T06:01:22.035Z,37.00
2023-01-01T06:03:49.559Z,37.17
2023-01-01T06:06:18.028Z,34.73
2023-01-01T06:08:50.574Z,37.20
2023-01-01T06:11:17.758Z,33.87
2023-01-01T06:13:44.923Z,35.10
2023-01-01T06:16:12.589Z,36.53
2023-01-01T06:18:39.996Z,37.90
2023-01-01T06:21:08.187Z,36.30
2023-01-01T06:23:35.729Z,37.87
2023-01-01T06:26:16.328Z,36.40
2023-01-01T06:28:44.033Z,39.67
2023-01-01T06:31:12.552Z,37.63
2023-01-01T06:33:40.253Z,38.57
2023-01-01T06:36:08.821Z,36.63
2023-01-01T06:38:37.955Z,39.93
2023-01-01T06:41:06.236Z,39.00
2023-01-01T06:43:34.327Z,37.30
2023-01-01T06:46:05.426Z,38.30
2023-01-01T06:48:34.026Z,38.90
2023-01-01T06:51:05.984Z,45.13
2023-01-01T06:53:33.119Z,38.50
2023-01-01T06:56:00.244Z,43.13
2023-01-01T06:58:27.413Z,40.17
2023-01-01T07:00:54.575Z,42.27
2023-01-01T07:03:21.756Z,40.53
2023-01-01T07:05:48.925Z,40.60
2023-01-01T07:08:16.054Z,39.13
2023-01-01T07:10:43.195Z,44.03
2023-01-01T07:13:10.337Z,39.03
2023-01-01T07:15:37.629Z,32.70
2023-01-01T07:18:04.896Z,36.60
2023-01-01T07:20:32.027Z,34.00
2023-01-01T07:23:02.175Z,32.07
2023-01-01T07:25:29.272Z,35.07
2023-01-01T07:27:56.411Z,32.97
2023-01-01T07:30:23.559Z,30.70
2023-01-01T07:32:55.130Z,27.87
2023-01-01T07:35:22.239Z,29.40
2023-01-01T07:37:49.325Z,28.17
2023-01-01T07:40:16.464Z,25.23
2023-01-01T07:42:43.566Z,25.80
2023-01-01T07:45:12.569Z,23.40
2023-01-01T07:47:39.959Z,21.70
2023-01-01T07:50:07.118Z,24.70
2023-01-01T07:52:34.214Z,21.87
2023-01-01T07:55:01.322Z,20.50
2023-01-01T07:57:28.399Z,21.60
2023-01-01T07:59:55.512Z,20.90
2023-01-01T08:02:22.820Z,20.40
2023-01-01T08:04:50.054Z,18.80
2023-01-01T08:07:17.198Z,21.43
2023-01-01T08:09:44.326Z,18.80
2023-01-01T08:12:11.451Z,19.50
2023-01-01T08:14:38.584Z,18.83
2023-01-01T08:17:05.721Z,16.73
2023-01-01T08:19:32.845Z,17.90
2023-01-01T08:22:00.019Z,16.47
2023-01-01T08:24:27.146Z,15.20
2023-01-01T08:26:54.311Z,16.37
2023-01-01T08:29:21.479Z,17.13
2023-01-01T08:31:49.420Z,16.20
2023-01-01T08:34:16.537Z,16.53
2023-01-01T08:36:43.650Z,14.07
2023-01-01T08:39:11.596Z,13.70
2023-01-01T08:41:38.724Z,17.20
2023-01-01T08:44:05.877Z,14.17
2023-01-01T08:46:33.049Z,13.03
2023-01-01T08:49:00.196Z,14.87
2023-01-01T08:51:27.344Z,12.77
2023-01-01T08:53:54.447Z,14.53
2023-01-01T08:56:21.637Z,14.87
2023-01-01T08:58:49.604Z,13.47
2023-01-01T09:01:16.884Z,12.93
2023-01-01T09:03:44.146Z,12.17
2023-01-01T09:06:11.249Z,14.07
2023-01-01T09:08:38.387Z,11.70
2023-01-01T09:11:05.660Z,14.07
2023-01-01T09:13:34.233Z,12.40
2023-01-01T09:16:01.383Z,10.70
2023-01-01T09:18:28.513Z,11.60
2023-01-01T09:20:55.619Z,14.80
2023-01-01T09:23:22.810Z,11.30
2023-01-01T09:25:49.915Z,15.80
2023-01-01T09:28:20.490Z,11.00
2023-01-01T09:30:52.409Z,10.03
2023-01-01T09:33:19.582Z,11.87
2023-01-01T09:35:46.693Z,12.20
2023-01-01T09:38:13.854Z,10.50
2023-01-01T09:40:59.611Z,16.20
2023-01-01T09:43:32.368Z,9.37
2023-01-01T09:46:03.833Z,8.67
2023-01-01T09:48:32.268Z,9.50
2023-01-01T09:51:01.054Z,12.90
2023-01-01T09:53:28.125Z,8.20
2023-01-01T09:55:59.411Z,9.43
2023-01-01T09:58:32.899Z,11.03
2023-01-01T10:01:24.511Z,12.57
2023-01-01T10:04:01.312Z,8.90
2023-01-01T10:06:29.240Z,10.97
2023-01-01T10:08:59.356Z,8.27
2023-01-01T10:11:38.411Z,11.23
2023-01-01T10:14:11.763Z,13.70
2023-01-01T10:16:40.962Z,10.10
2023-01-01T10:19:21.663Z,7.50
2023-01-01T10:21:50.467Z,12.47
2023-01-01T10:24:32.646Z,9.13
2023-01-01T10:27:00.775Z,9.70
2023-01-01T10:29:42.040Z,8.63
2023-01-01T10:32:20.377Z,9.77
2023-01-01T10:34:48.027Z,8.83
2023-01-01T10:37:15.435Z,9.03
2023-01-01T10:39:43.310Z,10.63
2023-01-01T10:42:12.994Z,9.93
2023-01-01T10:44:40.117Z,12.07
2023-01-01T10:47:25.679Z,9.77
2023-01-01T10:50:07.512Z,11.27
2023-01-01T10:52:40.596Z,11.23
2023-01-01T10:55:20.039Z,8.35
2023-01-01T10:57:47.197Z,8.50
2023-01-01T11:00:25.621Z,10.70
2023-01-01T11:03:11.521Z,11.02
2023-01-01T11:05:38.688Z,12.03
2023-01-01T11:08:16.434Z,10.77
2023-01-01T11:10:50.301Z,11.43
2023-01-01T11:13:19.481Z,11.00
2023-01-01T11:15:47.071Z,7.15
2023-01-01T11:18:15.757Z,10.00
2023-01-01T11:20:43.122Z,10.30
2023-01-01T11:23:30.072Z,7.23
2023-01-01T11:26:01.792Z,11.37
2023-01-01T11:28:31.689Z,11.90
2023-01-01T11:31:00.727Z,7.50
2023-01-01T11:33:28.529Z,9.00
2023-01-01T11:35:56.386Z,10.30
2023-01-01T11:38:29.454Z,14.17
2023-01-01T11:41:01.787Z,7.30
2023-01-01T11:43:29.164Z,11.90
2023-01-01T11:45:58.391Z,12.53
2023-01-01T11:48:33.661Z,10.53
2023-01-01T11:51:05.530Z,10.63
2023-01-01T11:53:43.704Z,10.27
2023-01-01T11:56:21.647Z,15.17
2023-01-01T11:58:48.744Z,11.70
2023-01-01T12:01:21.955Z,11.33
2023-01-01T12:03:52.316Z,8.73
2023-01-01T12:06:21.757Z,9.10
2023-01-01T12:08:57.670Z,10.33
2023-01-01T12:11:45.024Z,10.23
2023-01-01T12:14:21.848Z,9.73
2023-01-01T12:16:54.008Z,12.17
2023-01-01T12:19:25.926Z,11.20
2023-01-01T12:21:56.418Z,12.10
2023-01-01T12:24:23.613Z,11.13
2023-01-01T12:26:53.479Z,12.50
2023-01-01T12:29:20.588Z,11.33
2023-01-01T12:32:02.327Z,10.47
2023-01-01T12:34:48.011Z,10.57
2023-01-01T12:37:34.239Z,11.23
2023-01-01T12:40:07.492Z,10.93
2023-01-01T12:42:40.994Z,9.83
2023-01-01T12:45:15.725Z,9.43
2023-01-01T12:48:01.490Z,16.47
2023-01-01T12:50:55.013Z,13.57
2023-01-01T12:53:39.805Z,10.57
2023-01-01T12:56:28.354Z,11.43
2023-01-01T12:59:02.686Z,9.17
2023-01-01T13:01:34.096Z,10.40
2023-01-01T13:04:03.667Z,12.43
2023-01-01T13:06:33.947Z,8.20
2023-01-01T13:09:07.704Z,9.53
2023-01-01T13:11:38.596Z,12.97
2023-01-01T13:14:10.260Z,11.03
2023-01-01T13:16:39.132Z,8.83
2023-01-01T13:19:06.550Z,11.70
2023-01-01T13:21:33.739Z,11.67
2023-01-01T13:24:11.934Z,9.97
2023-01-01T13:26:39.292Z,11.03
2023-01-01T13:29:09.575Z,14.77
2023-01-01T13:31:42.613Z,10.60
2023-01-01T13:34:28.573Z,10.43
2023-01-01T13:37:11.015Z,15.00
2023-01-01T13:39:57.108Z,10.30
2023-01-01T13:42:43.270Z,12.43
2023-01-01T13:48:41.169Z,11.33
2023-01-01T13:51:47.188Z,10.57
2023-01-01T13:54:26.328Z,14.63
2023-01-01T13:56:59.223Z,9.60
2023-01-01T13:59:29.486Z,14.03
2023-01-01T14:02:15.469Z,10.27
2023-01-01T14:04:45.543Z,13.07
2023-01-01T14:07:41.252Z,11.17
2023-01-01T14:10:23.171Z,15.83
2023-01-01T14:12:50.850Z,12.17
2023-01-01T14:15:24.945Z,11.13
2023-01-01T14:17:53.167Z,11.07
2023-01-01T14:20:22.161Z,10.47
2023-01-01T14:22:50.200Z,11.30
2023-01-01T14:25:19.345Z,11.67
2023-01-01T14:27:46.637Z,14.90
2023-01-01T14:30:18.225Z,12.17
2023-01-01T14:32:45.584Z,13.57
2023-01-01T14:35:15.848Z,14.77
2023-01-01T14:37:43.480Z,14.90
2023-01-01T14:40:29.285Z,14.07
2023-01-01T14:43:01.947Z,16.87
2023-01-01T14:45:29.717Z,14.43
2023-01-01T14:47:57.783Z,8.47
2023-01-01T14:50:27.365Z,10.13
2023-01-01T14:52:56.650Z,10.50
2023-01-01T14:55:26.907Z,11.13
2023-01-01T14:57:58.945Z,10.63
2023-01-01T15:00:27.657Z,16.10
2023-01-01T15:02:54.936Z,13.87
2023-01-01T15:05:33.295Z,12.77
2023-01-01T15:08:03.460Z,14.03
2023-01-01T15:10:31.681Z,11.40
2023-01-01T15:12:58.966Z,8.20
2023-01-01T15:15:40.126Z,16.00
2023-01-01T15:18:08.020Z,9.47
2023-01-01T15:20:36.162Z,15.13
2023-01-01T15:23:09.957Z,12.00
2023-01-01T15:25:38.491Z,14.47
2023-01-01T15:28:05.981Z,10.37
2023-01-01T15:30:35.254Z,14.13
2023-01-01T15:33:10.237Z,14.07
2023-01-01T15:35:38.140Z,13.10
2023-01-01T15:38:11.859Z,11.00
2023-01-01T15:40:40.289Z,13.73
2023-01-01T15:43:16.398Z,15.37
2023-01-01T15:45:52.145Z,13.90
2023-01-01T15:48:25.782Z,17.73
2023-01-01T15:50:52.851Z,15.47
2023-01-01T15:53:21.346Z,14.77
2023-01-01T15:55:54.658Z,17.53
2023-01-01T15:58:24.509Z,13.33
2023-01-01T16:00:56.698Z,17.80
2023-01-01T16:03:26.346Z,13.67
2023-01-01T16:05:55.552Z,14.43
2023-01-01T16:08:22.898Z,16.70
2023-01-01T16:10:50.846Z,32.77
2023-01-01T16:13:18.329Z,25.80
2023-01-01T16:15:58.933Z,22.63
2023-01-01T16:18:30.628Z,23.73
2023-01-01T16:20:57.747Z,18.37
2023-01-01T16:23:24.884Z,16.00
2023-01-01T16:25:52.034Z,18.30
2023-01-01T16:28:19.179Z,17.33
2023-01-01T16:30:49.208Z,14.30
2023-01-01T16:33:20.392Z,17.37
2023-01-01T16:35:47.542Z,16.77
2023-01-01T16:38:14.666Z,15.60
2023-01-01T16:40:41.792Z,17.73
2023-01-01T16:43:14.889Z,16.47
2023-01-01T16:45:42.173Z,15.37
2023-01-01T16:48:09.330Z,22.40
2023-01-01T16:50:36.472Z,26.33
2023-01-01T16:53:03.655Z,26.57
2023-01-01T16:55:30.787Z,29.93
2023-01-01T16:58:21.203Z,25.40
2023-01-01T17:00:44.967Z,27.80
2023-01-01T17:03:12.144Z,20.67
2023-01-01T17:05:44.006Z,17.37
2023-01-01T17:08:11.879Z,14.83
2023-01-01T17:10:40.113Z,20.60
2023-01-01T17:13:07.667Z,56.57
2023-01-01T17:15:34.930Z,29.70
2023-01-01T17:18:02.086Z,28.20
2023-01-01T17:20:29.182Z,22.73
2023-01-01T17:22:56.329Z,21.33
2023-01-01T17:25:23.497Z,16.30
2023-01-01T17:27:50.868Z,24.03
2023-01-01T17:30:18.010Z,21.23
2023-01-01T17:32:45.128Z,21.77
2023-01-01T17:35:12.326Z,23.20
2023-01-01T17:37:39.401Z,23.07
2023-01-01T17:40:06.865Z,24.23
2023-01-01T17:42:35.408Z,27.53
2023-01-01T17:45:02.584Z,25.87
2023-01-01T17:47:33.018Z,25.83
2023-01-01T17:50:00.871Z,27.27
2023-01-01T17:52:28.312Z,24.17
2023-01-01T17:54:55.472Z,20.00
2023-01-01T17:57:22.615Z,22.40
2023-01-01T17:59:49.737Z,24.50
2023-01-01T18:02:17.104Z,24.03
2023-01-01T18:04:45.146Z,18.93
2023-01-01T18:07:12.273Z,19.00
2023-01-01T18:09:40.378Z,19.47
2023-01-01T18:12:07.587Z,21.50
2023-01-01T18:14:34.696Z,19.47
2023-01-01T18:17:01.849Z,21.30
2023-01-01T18:19:29.426Z,22.93
2023-01-01T18:21:56.504Z,21.90
2023-01-01T18:24:23.634Z,25.03
2023-01-01T18:26:50.929Z,21.63
2023-01-01T18:29:18.020Z,21.53
2023-01-01T18:31:45.202Z,27.00
2023-01-01T18:34:12.376Z,24.00
2023-01-01T18:36:39.672Z,24.93
2023-01-01T18:39:14.277Z,30.07
2023-01-01T18:41:55.719Z,22.00
2023-01-01T18:44:24.363Z,24.10
2023-01-01T18:47:06.644Z,28.37
2023-01-01T18:49:34.689Z,26.70
2023-01-01T18:52:14.158Z,26.50
2023-01-01T18:54:41.490Z,29.67
2023-01-01T18:57:08.676Z,25.33
2023-01-01T18:59:37.265Z,28.07
2023-01-01T19:02:30.758Z,24.67
2023-01-01T19:05:06.848Z,30.10
2023-01-01T19:07:33.963Z,26.90
2023-01-01T19:10:01.185Z,23.27
2023-01-01T19:12:28.528Z,20.50
2023-01-01T19:14:55.823Z,26.73
2023-01-01T19:17:23.685Z,25.33
2023-01-01T19:19:52.535Z,25.47
2023-01-01T19:22:23.656Z,26.83
2023-01-01T19:24:50.789Z,29.43
2023-01-01T19:27:18.681Z,23.33
2023-01-01T19:29:46.724Z,30.03
2023-01-01T19:32:13.862Z,27.23
2023-01-01T19:34:41.111Z,22.90
2023-01-01T19:37:08.765Z,29.73
2023-01-01T19:39:36.102Z,21.60
2023-01-01T19:42:05.014Z,27.40
2023-01-01T19:44:32.646Z,25.83
2023-01-01T19:47:04.916Z,22.87
2023-01-01T19:49:32.321Z,21.07
2023-01-01T19:51:59.453Z,25.40
2023-01-01T19:54:26.637Z,22.53
2023-01-01T19:56:53.821Z,18.07
2023-01-01T19:59:21.122Z,19.83
2023-01-01T20:02:09.980Z,22.83
2023-01-01T20:04:35.696Z,19.83
2023-01-01T20:07:02.894Z,23.63
2023-01-01T20:09:30.032Z,18.27
2023-01-01T20:11:57.129Z,20.70
2023-01-01T20:14:24.232Z,18.27
2023-01-01T20:16:53.325Z,24.47
2023-01-01T20:19:20.755Z,24.23
2023-01-01T20:22:06.636Z,25.47
2023-01-01T20:24:33.844Z,23.80
2023-01-01T20:27:01.617Z,22.33
2023-01-01T20:29:28.814Z,21.53
2023-01-01T20:31:56.020Z,19.97
2023-01-01T20:34:23.237Z,18.67
2023-01-01T20:37:08.910Z,20.13
2023-01-01T20:39:36.181Z,20.70
2023-01-01T20:42:03.627Z,17.80
2023-01-01T20:44:30.779Z,17.53
2023-01-01T20:46:57.908Z,17.80
2023-01-01T20:49:25.082Z,18.17
2023-01-01T20:51:53.041Z,17.03
2023-01-01T20:54:20.686Z,18.93
2023-01-01T20:56:47.918Z,17.57
2023-01-01T20:59:35.309Z,23.47
2023-01-01T21:02:04.075Z,14.87
2023-01-01T21:04:31.455Z,18.67
2023-01-01T21:06:58.585Z,17.07
2023-01-01T21:09:25.712Z,18.73
2023-01-01T21:11:52.868Z,18.77
2023-01-01T21:14:20.565Z,18.77
2023-01-01T21:16:47.739Z,19.93
2023-01-01T21:19:15.353Z,17.47
2023-01-01T21:21:48.196Z,16.13
2023-01-01T21:24:37.437Z,19.93
2023-01-01T21:27:24.703Z,16.83
2023-01-01T21:29:53.168Z,17.80
2023-01-01T21:32:24.268Z,18.63
2023-01-01T21:34:52.528Z,18.33
2023-01-01T21:37:44.026Z,17.47
2023-01-01T21:40:25.882Z,18.00
2023-01-01T21:43:04.233Z,15.23
2023-01-01T21:45:35.752Z,19.50
2023-01-01T21:48:21.379Z,17.07
2023-01-01T21:50:49.212Z,18.97
2023-01-01T21:53:17.545Z,20.80
2023-01-01T21:55:54.601Z,15.30
2023-01-01T21:58:40.187Z,15.87
2023-01-01T22:01:27.248Z,16.63
2023-01-01T22:04:13.742Z,15.97
2023-01-01T22:06:53.949Z,18.17
2023-01-01T22:09:25.251Z,17.03
2023-01-01T22:11:54.051Z,15.43
2023-01-01T22:14:26.975Z,18.80
2023-01-01T22:16:56.126Z,19.43
2023-01-01T22:19:24.243Z,18.70
2023-01-01T22:21:52.007Z,18.67
2023-01-01T22:24:32.893Z,14.50
2023-01-01T22:27:18.610Z,16.30
2023-01-01T22:29:46.121Z,16.77
2023-01-01T22:32:25.228Z,16.00
2023-01-01T22:34:53.750Z,15.07
2023-01-01T22:37:28.712Z,17.50
2023-01-01T22:39:55.837Z,14.83
2023-01-01T22:42:23.261Z,15.33
2023-01-01T22:44:55.080Z,11.27
2023-01-01T22:47:22.222Z,10.90
2023-01-01T22:49:53.447Z,11.17
2023-01-01T22:52:20.545Z,10.73
2023-01-01T22:54:47.722Z,10.53
2023-01-01T22:57:14.825Z,8.57
2023-01-01T22:59:41.937Z,11.83
2023-01-01T23:02:09.071Z,9.23
2023-01-01T23:04:36.201Z,8.50
2023-01-01T23:07:04.461Z,9.33
2023-01-01T23:09:31.992Z,13.70
2023-01-01T23:11:59.157Z,8.90
2023-01-01T23:14:44.820Z,14.63
2023-01-01T23:17:11.931Z,14.63
2023-01-01T23:19:39.094Z,12.47
2023-01-01T23:22:06.347Z,13.87
2023-01-01T23:24:33.811Z,14.20
2023-01-01T23:27:01.462Z,17.93
2023-01-01T23:29:32.778Z,12.47
2023-01-01T23:32:00.385Z,14.70
2023-01-01T23:34:27.616Z,13.83
2023-01-01T23:36:55.981Z,14.40
2023-01-01T23:39:23.139Z,18.33
2023-01-01T23:41:51.496Z,15.17
2023-01-01T23:44:18.669Z,15.13
2023-01-01T23:46:46.040Z,15.10
2023-01-01T23:49:13.475Z,16.80
2023-01-01T23:51:40.705Z,13.63
2023-01-01T23:54:07.868Z,17.90
2023-01-01T23:56:35.135Z,17.67
2023-01-01T23:59:02.321Z,12.90
